createdAt,value
2018-12-01T00:01:19.303Z,81.60
2018-12-01T00:03:52.710Z,82.00
2018-12-01T00:06:21.943Z,81.30
2018-12-01T00:08:51.170Z,80.90
2018-12-01T00:11:20.380Z,81.40
2018-12-01T00:13:52.066Z,80.80
2018-12-01T00:16:21.701Z,80.30
2018-12-01T00:18:51.306Z,80.10
2018-12-01T00:21:23.846Z,80.70
2018-12-01T00:23:54.600Z,80.50
2018-12-01T00:26:24.059Z,80.10
2018-12-01T00:28:53.555Z,79.90
2018-12-01T00:31:24.981Z,80.00
2018-12-01T00:33:55.492Z,80.20
2018-12-01T00:36:24.813Z,80.30
2018-12-01T00:38:55.426Z,80.30
2018-12-01T00:41:24.674Z,80.20
2018-12-01T00:43:55.195Z,80.10
2018-12-01T00:46:27.489Z,80.40
2018-12-01T00:49:00.859Z,80.00
2018-12-01T00:51:33.614Z,80.10
2018-12-01T00:54:04.269Z,80.00
2018-12-01T00:56:42.586Z,80.50
2018-12-01T00:59:12.218Z,80.20
2018-12-01T01:01:42.755Z,80.10
2018-12-01T01:04:13.498Z,80.30
2018-12-01T01:06:42.740Z,80.90
2018-12-01T01:09:12.436Z,80.90
2018-12-01T01:11:41.764Z,81.30
2018-12-01T01:14:15.202Z,82.90
2018-12-01T01:16:46.284Z,81.40
2018-12-01T01:19:17.899Z,81.30
2018-12-01T01:21:47.302Z,82.40
2018-12-01T01:24:25.845Z,82.60
2018-12-01T01:26:57.251Z,83.10
2018-12-01T01:29:27.807Z,84.50
2018-12-01T01:31:57.082Z,83.50
2018-12-01T01:34:28.117Z,83.50
2018-12-01T01:37:00.135Z,82.80
2018-12-01T01:39:32.617Z,83.00
2018-12-01T01:42:04.755Z,83.90
2018-12-01T01:44:35.828Z,84.10
2018-12-01T01:47:07.442Z,85.40
2018-12-01T01:49:39.366Z,85.30
2018-12-01T01:52:10.529Z,84.50
2018-12-01T01:54:39.759Z,84.50
2018-12-01T01:57:10.317Z,84.30
2018-12-01T01:59:39.984Z,83.80
2018-12-01T02:02:11.325Z,83.30
2018-12-01T02:04:40.523Z,83.30
2018-12-01T02:07:09.720Z,83.20
2018-12-01T02:09:41.479Z,83.70
2018-12-01T02:12:12.914Z,83.70
2018-12-01T02:14:44.235Z,84.10
2018-12-01T02:17:13.443Z,83.70
2018-12-01T02:19:44.528Z,83.80
2018-12-01T02:22:16.218Z,83.80
2018-12-01T02:24:47.698Z,83.90
2018-12-01T02:27:18.335Z,84.20
2018-12-01T02:29:49.797Z,84.30
2018-12-01T02:32:19.954Z,84.70
2018-12-01T02:34:49.184Z,84.00
2018-12-01T02:37:18.403Z,84.00
2018-12-01T02:39:47.586Z,84.20
2018-12-01T02:42:17.771Z,84.20
2018-12-01T02:45:08.834Z,84.30
2018-12-01T02:47:42.174Z,83.70
2018-12-01T02:50:13.373Z,83.80
2018-12-01T02:52:46.227Z,83.70
2018-12-01T02:55:18.088Z,84.00
2018-12-01T02:57:50.176Z,84.30
2018-12-01T03:00:22.156Z,84.30
2018-12-01T03:02:51.382Z,84.40
2018-12-01T03:05:22.772Z,84.30
2018-12-01T03:07:52.850Z,84.60
2018-12-01T03:10:23.434Z,84.90
2018-12-01T03:12:56.777Z,85.00
2018-12-01T03:15:26.540Z,84.80
2018-12-01T03:17:55.737Z,83.90
2018-12-01T03:20:27.068Z,83.80
2018-12-01T03:22:57.785Z,84.30
2018-12-01T03:25:29.034Z,84.90
2018-12-01T03:28:01.686Z,85.00
2018-12-01T03:30:33.686Z,84.90
2018-12-01T03:33:04.651Z,85.50
2018-12-01T03:35:37.640Z,85.80
2018-12-01T03:38:08.810Z,85.20
2018-12-01T03:40:43.399Z,85.30
2018-12-01T03:43:12.915Z,85.40
2018-12-01T03:45:44.658Z,85.90
2018-12-01T03:48:18.190Z,85.70
2018-12-01T03:50:49.094Z,85.70
2018-12-01T03:53:18.411Z,85.70
2018-12-01T03:55:50.027Z,85.70
2018-12-01T03:58:21.867Z,86.40
2018-12-01T04:00:51.523Z,87.20
2018-12-01T04:03:20.728Z,86.70
2018-12-01T04:05:50.951Z,86.70
2018-12-01T04:08:21.719Z,86.30
2018-12-01T04:10:50.901Z,86.00
2018-12-01T04:13:20.088Z,86.40
2018-12-01T04:15:50.873Z,86.30
2018-12-01T04:18:23.114Z,86.60
2018-12-01T04:20:54.070Z,86.60
2018-12-01T04:23:27.073Z,86.40
2018-12-01T04:25:58.053Z,86.30
2018-12-01T04:28:29.542Z,86.90
2018-12-01T04:30:58.816Z,86.30
2018-12-01T04:33:30.615Z,86.60
2018-12-01T04:36:10.698Z,86.60
2018-12-01T04:38:42.010Z,86.20
2018-12-01T04:41:14.338Z,86.70
2018-12-01T04:43:43.574Z,86.40
2018-12-01T04:46:13.084Z,86.60
2018-12-01T04:48:44.039Z,86.70
2018-12-01T04:51:13.242Z,87.50
2018-12-01T04:53:42.426Z,87.50
2018-12-01T04:56:11.662Z,87.60
2018-12-01T04:58:42.230Z,87.50
2018-12-01T05:01:14.587Z,87.60
2018-12-01T05:03:45.986Z,87.50
2018-12-01T05:06:15.237Z,87.70
2018-12-01T05:08:45.477Z,87.70
2018-12-01T05:11:17.602Z,88.60
2018-12-01T05:13:46.806Z,88.50
2018-12-01T05:16:16.351Z,89.20
2018-12-01T05:18:47.098Z,89.10
2018-12-01T05:21:16.305Z,89.10
2018-12-01T05:23:47.399Z,90.10
2018-12-01T05:26:19.894Z,90.60
2018-12-01T05:28:50.188Z,90.50
2018-12-01T05:31:19.375Z,90.70
2018-12-01T05:33:51.822Z,91.40
2018-12-01T05:36:23.087Z,91.20
2018-12-01T05:38:54.922Z,91.10
2018-12-01T05:41:25.258Z,91.00
2018-12-01T05:43:54.450Z,91.30
2018-12-01T05:46:24.166Z,91.40
2018-12-01T05:48:54.400Z,91.20
2018-12-01T05:51:26.375Z,91.00
2018-12-01T05:53:56.010Z,90.80
2018-12-01T05:56:26.014Z,90.80
2018-12-01T05:58:55.269Z,90.80
2018-12-01T06:01:26.398Z,90.80
2018-12-01T06:03:58.054Z,91.10
2018-12-01T06:06:27.286Z,91.10
2018-12-01T06:08:56.482Z,91.30
2018-12-01T06:11:27.522Z,91.20
2018-12-01T06:13:58.977Z,91.40
2018-12-01T06:16:30.893Z,91.30
2018-12-01T06:19:00.162Z,91.30
2018-12-01T06:21:29.351Z,92.10
2018-12-01T06:24:00.839Z,92.10
2018-12-01T06:26:32.530Z,92.20
2018-12-01T06:29:03.834Z,92.50
2018-12-01T06:31:35.939Z,92.80
2018-12-01T06:34:05.774Z,93.20
2018-12-01T06:36:36.289Z,93.80
2018-12-01T06:39:09.051Z,93.70
2018-12-01T06:41:40.042Z,92.60
2018-12-01T06:44:11.075Z,92.60
2018-12-01T06:46:40.942Z,92.50
2018-12-01T06:49:10.853Z,92.40
2018-12-01T06:51:43.707Z,92.50
2018-12-01T06:54:13.806Z,92.70
2018-12-01T06:56:43.730Z,92.70
2018-12-01T06:59:13.982Z,93.10
2018-12-01T07:01:43.733Z,93.20
2018-12-01T07:04:12.951Z,93.40
2018-12-01T07:06:44.545Z,93.20
2018-12-01T07:09:13.722Z,93.10
2018-12-01T07:11:43.121Z,93.40
2018-12-01T07:14:12.716Z,93.50
2018-12-01T07:16:45.210Z,93.60
2018-12-01T07:19:17.294Z,94.10
2018-12-01T07:21:49.630Z,94.40
2018-12-01T07:24:20.602Z,94.70
2018-12-01T07:26:53.527Z,94.60
2018-12-01T07:29:22.746Z,94.30
2018-12-01T07:31:52.009Z,94.60
2018-12-01T07:34:23.678Z,94.80
2018-12-01T07:36:55.181Z,93.90
2018-12-01T07:39:26.862Z,93.80
2018-12-01T07:41:57.630Z,94.60
2018-12-01T07:44:26.830Z,94.30
2018-12-01T07:46:56.794Z,94.30
2018-12-01T07:49:26.089Z,94.30
2018-12-01T07:51:57.870Z,94.70
2018-12-01T07:54:27.212Z,94.70
2018-12-01T07:56:59.438Z,94.90
2018-12-01T07:59:29.707Z,95.10
2018-12-01T08:01:59.120Z,95.30
2018-12-01T08:04:28.338Z,95.80
2018-12-01T08:06:59.835Z,95.90
2018-12-01T08:09:31.072Z,96.10
2018-12-01T08:12:00.694Z,96.60
2018-12-01T08:14:30.977Z,96.40
2018-12-01T08:17:00.806Z,96.80
2018-12-01T08:19:31.337Z,97.50
2018-12-01T08:22:00.754Z,98.00
2018-12-01T08:24:31.035Z,97.90
2018-12-01T08:27:00.254Z,98.60
2018-12-01T08:29:29.487Z,97.60
2018-12-01T08:32:01.295Z,97.60
2018-12-01T08:34:31.576Z,97.40
2018-12-01T08:37:00.809Z,96.70
2018-12-01T08:39:33.150Z,97.10
2018-12-01T08:42:04.841Z,96.10
2018-12-01T08:44:36.523Z,95.50
2018-12-01T08:47:07.592Z,95.70
2018-12-01T08:49:38.066Z,95.70
2018-12-01T08:52:08.862Z,96.20
2018-12-01T08:54:39.767Z,96.30
2018-12-01T08:57:09.278Z,96.60
2018-12-01T08:59:40.007Z,96.60
2018-12-01T09:02:09.487Z,97.00
2018-12-01T09:04:40.687Z,97.60
2018-12-01T09:07:10.179Z,97.50
2018-12-01T09:09:39.398Z,97.60
2018-12-01T09:12:10.469Z,97.30
2018-12-01T09:14:39.696Z,97.50
2018-12-01T09:17:09.282Z,99.30
2018-12-01T09:19:42.160Z,99.40
2018-12-01T09:22:13.057Z,99.90
2018-12-01T09:24:45.025Z,99.90
2018-12-01T09:27:14.242Z,99.90
2018-12-01T09:29:43.447Z,99.90
2018-12-01T09:32:13.486Z,99.90
2018-12-01T09:34:47.102Z,99.30
2018-12-01T09:37:16.410Z,99.90
2018-12-01T09:39:45.590Z,99.90
2018-12-01T09:42:14.795Z,99.90
2018-12-01T09:44:46.164Z,99.90
2018-12-01T09:47:16.191Z,99.90
2018-12-01T09:49:46.432Z,99.90
2018-12-01T09:52:16.030Z,93.60
2018-12-01T09:54:46.242Z,96.60
2018-12-01T09:57:17.379Z,96.90
2018-12-01T09:59:46.767Z,91.70
2018-12-01T10:02:16.315Z,89.10
2018-12-01T10:04:47.462Z,86.20
2018-12-01T10:07:18.530Z,92.10
2018-12-01T10:09:47.746Z,98.80
2018-12-01T10:12:16.978Z,99.90
2018-12-01T10:14:46.232Z,99.90
2018-12-01T10:17:15.430Z,93.30
2018-12-01T10:19:45.519Z,90.40
2018-12-01T10:22:16.386Z,88.50
2018-12-01T10:24:47.214Z,86.90
2018-12-01T10:27:18.690Z,82.90
2018-12-01T10:29:50.499Z,78.80
2018-12-01T10:32:19.739Z,78.20
2018-12-01T10:34:49.315Z,77.80
2018-12-01T10:37:20.019Z,77.80
2018-12-01T10:39:50.744Z,78.00
2018-12-01T10:42:23.333Z,79.40
2018-12-01T10:44:53.490Z,83.60
2018-12-01T10:47:23.189Z,85.80
2018-12-01T10:49:52.798Z,78.20
2018-12-01T10:52:25.656Z,75.80
2018-12-01T10:55:01.625Z,75.30
2018-12-01T10:57:31.030Z,76.00
2018-12-01T11:00:00.262Z,75.70
2018-12-01T11:04:39.585Z,75.40
2018-12-01T11:07:08.805Z,75.30
2018-12-01T11:09:38.019Z,68.90
2018-12-01T11:12:08.643Z,69.50
2018-12-01T11:14:38.501Z,71.70
2018-12-01T11:17:10.215Z,67.00
2018-12-01T11:19:41.398Z,65.40
2018-12-01T11:22:12.963Z,64.50
2018-12-01T11:24:42.243Z,62.20
2018-12-01T11:27:11.418Z,62.80
2018-12-01T11:29:43.834Z,61.30
2018-12-01T11:32:17.275Z,61.40
2018-12-01T11:34:49.147Z,63.10
2018-12-01T11:37:21.393Z,65.50
2018-12-01T11:39:50.615Z,67.60
2018-12-01T11:42:19.952Z,65.10
2018-12-01T11:44:56.906Z,67.60
2018-12-01T11:47:23.880Z,64.70
2018-12-01T11:49:57.714Z,65.50
2018-12-01T11:52:26.958Z,66.60
2018-12-01T11:54:56.128Z,67.50
2018-12-01T11:57:25.411Z,69.40
2018-12-01T11:59:57.255Z,69.10
2018-12-01T12:02:27.614Z,68.20
2018-12-01T12:05:00.165Z,69.00
2018-12-01T12:07:42.289Z,66.20
2018-12-01T12:10:11.646Z,66.60
2018-12-01T12:12:40.964Z,65.10
2018-12-01T12:15:11.324Z,65.50
2018-12-01T12:17:45.298Z,63.80
2018-12-01T12:20:16.896Z,62.90
2018-12-01T12:22:50.146Z,60.10
2018-12-01T12:25:19.884Z,61.20
2018-12-01T12:27:51.011Z,60.50
2018-12-01T12:32:56.578Z,58.90
2018-12-01T12:35:25.833Z,59.90
2018-12-01T12:37:55.086Z,60.20
2018-12-01T12:40:26.707Z,60.60
2018-12-01T12:43:05.032Z,61.80
2018-12-01T12:45:34.363Z,63.20
2018-12-01T12:48:09.126Z,63.40
2018-12-01T12:50:38.430Z,63.80
2018-12-01T12:53:09.783Z,64.30
2018-12-01T12:55:40.497Z,65.10
2018-12-01T12:58:13.500Z,64.80
2018-12-01T13:00:43.449Z,66.50
2018-12-01T13:03:16.569Z,65.70
2018-12-01T13:05:46.651Z,66.20
2018-12-01T13:08:20.562Z,63.00
2018-12-01T13:10:52.439Z,63.80
2018-12-01T13:13:24.358Z,63.70
2018-12-01T13:15:53.712Z,63.70
2018-12-01T13:18:23.079Z,64.70
2018-12-01T13:20:52.520Z,65.30
2018-12-01T13:23:27.629Z,64.00
2018-12-01T13:26:01.402Z,66.40
2018-12-01T13:28:34.160Z,68.20
2018-12-01T13:31:03.587Z,70.50
2018-12-01T13:33:33.178Z,63.20
2018-12-01T13:36:02.451Z,62.90
2018-12-01T13:38:31.972Z,62.40
2018-12-01T13:41:03.158Z,60.80
2018-12-01T13:43:33.453Z,60.60
2018-12-01T13:46:02.779Z,60.30
2018-12-01T13:48:33.783Z,62.20
2018-12-01T13:51:04.430Z,62.60
2018-12-01T13:53:33.646Z,62.90
2018-12-01T13:56:05.884Z,63.70
2018-12-01T13:58:35.411Z,65.00
2018-12-01T14:01:04.683Z,64.80
2018-12-01T14:03:36.275Z,64.10
2018-12-01T14:06:08.746Z,64.00
2018-12-01T14:08:40.833Z,63.30
2018-12-01T14:11:10.166Z,64.20
2018-12-01T14:13:42.257Z,62.50
2018-12-01T14:16:18.271Z,62.20
2018-12-01T14:18:52.754Z,61.50
2018-12-01T14:21:24.391Z,62.80
2018-12-01T14:23:56.054Z,63.20
2018-12-01T14:26:25.801Z,64.10
2018-12-01T14:28:57.255Z,65.00
2018-12-01T14:31:28.627Z,64.20
2018-12-01T14:33:58.177Z,65.20
2018-12-01T14:36:27.414Z,65.50
2018-12-01T14:38:56.772Z,66.20
2018-12-01T14:41:26.086Z,66.70
2018-12-01T14:43:55.375Z,66.50
2018-12-01T14:46:27.512Z,65.70
2018-12-01T14:48:56.789Z,66.20
2018-12-01T14:51:28.220Z,66.40
2018-12-01T14:53:58.143Z,66.10
2018-12-01T14:56:27.626Z,67.10
2018-12-01T14:58:57.953Z,66.50
2018-12-01T15:01:27.151Z,66.70
2018-12-01T15:03:58.350Z,66.30
2018-12-01T15:06:28.265Z,67.40
2018-12-01T15:09:01.514Z,66.40
2018-12-01T15:11:30.891Z,65.90
2018-12-01T15:14:03.277Z,66.60
2018-12-01T15:16:36.566Z,66.00
2018-12-01T15:19:06.850Z,65.90
2018-12-01T15:21:36.202Z,66.90
2018-12-01T15:24:06.290Z,67.50
2018-12-01T15:26:35.472Z,66.70
2018-12-01T15:29:06.749Z,66.30
2018-12-01T15:31:40.370Z,69.10
2018-12-01T15:34:10.413Z,67.10
2018-12-01T15:36:40.924Z,66.80
2018-12-01T15:39:11.754Z,68.20
2018-12-01T15:41:41.110Z,68.80
2018-12-01T15:44:12.185Z,67.50
2018-12-01T15:46:43.819Z,69.20
2018-12-01T15:49:13.186Z,69.20
2018-12-01T15:51:42.777Z,69.00
2018-12-01T15:54:12.331Z,68.50
2018-12-01T15:56:41.674Z,68.50
2018-12-01T15:59:11.514Z,69.50
2018-12-01T16:01:42.070Z,67.80
2018-12-01T16:04:11.563Z,68.60
2018-12-01T16:06:41.646Z,69.80
2018-12-01T16:09:12.873Z,69.80
2018-12-01T16:11:46.494Z,68.70
2018-12-01T16:14:16.955Z,68.40
2018-12-01T16:16:46.523Z,68.90
2018-12-01T16:19:17.054Z,69.70
2018-12-01T16:21:49.516Z,69.70
2018-12-01T16:24:21.117Z,69.50
2018-12-01T16:26:50.417Z,69.40
2018-12-01T16:29:19.722Z,69.10
2018-12-01T16:31:49.034Z,70.40
2018-12-01T16:34:19.590Z,69.30
2018-12-01T16:36:48.843Z,68.90
2018-12-01T16:39:20.334Z,69.40
2018-12-01T16:41:54.006Z,70.70
2018-12-01T16:44:25.768Z,70.10
2018-12-01T16:46:57.067Z,70.00
2018-12-01T16:49:27.667Z,70.00
2018-12-01T16:51:57.827Z,69.80
2018-12-01T16:54:28.148Z,70.20
2018-12-01T16:56:57.728Z,71.20
2018-12-01T16:59:27.132Z,71.60
2018-12-01T17:01:56.707Z,71.00
2018-12-01T17:04:27.508Z,71.00
2018-12-01T17:07:01.078Z,71.00
2018-12-01T17:09:31.134Z,71.70
2018-12-01T17:12:01.322Z,73.00
2018-12-01T17:14:33.374Z,73.60
2018-12-01T17:17:04.037Z,73.90
2018-12-01T17:19:40.938Z,73.50
2018-12-01T17:22:12.776Z,74.50
2018-12-01T17:24:45.551Z,74.00
2018-12-01T17:27:19.539Z,74.50
2018-12-01T17:29:50.506Z,73.40
2018-12-01T17:32:19.843Z,73.20
2018-12-01T17:34:49.158Z,73.50
2018-12-01T17:37:18.618Z,73.20
2018-12-01T17:39:49.064Z,73.50
2018-12-01T17:42:18.655Z,73.50
2018-12-01T17:44:49.374Z,74.20
2018-12-01T17:47:24.218Z,74.40
2018-12-01T17:49:53.620Z,73.90
2018-12-01T17:52:22.875Z,73.70
2018-12-01T17:54:53.192Z,73.40
2018-12-01T17:57:23.198Z,73.50
2018-12-01T17:59:53.542Z,73.30
2018-12-01T18:02:25.159Z,73.40
2018-12-01T18:04:56.879Z,73.50
2018-12-01T18:07:26.404Z,73.30
2018-12-01T18:09:56.017Z,73.40
2018-12-01T18:12:25.562Z,73.70
2018-12-01T18:14:58.286Z,74.00
2018-12-01T18:17:28.937Z,74.20
2018-12-01T18:20:01.920Z,74.00
2018-12-01T18:22:32.518Z,74.50
2018-12-01T18:25:01.944Z,74.70
2018-12-01T18:27:32.149Z,74.70
2018-12-01T18:30:12.762Z,74.90
2018-12-01T18:32:44.080Z,75.40
2018-12-01T18:35:14.179Z,75.30
2018-12-01T18:37:44.696Z,75.40
2018-12-01T18:40:20.984Z,75.40
2018-12-01T18:42:53.466Z,75.90
2018-12-01T18:45:24.447Z,75.50
2018-12-01T18:47:54.778Z,76.20
2018-12-01T18:50:25.258Z,75.90
2018-12-01T18:53:03.014Z,76.20
2018-12-01T18:55:33.876Z,76.20
2018-12-01T18:58:09.725Z,76.40
2018-12-01T19:00:47.090Z,76.50
2018-12-01T19:03:17.903Z,76.30
2018-12-01T19:05:49.506Z,76.40
2018-12-01T19:08:30.425Z,76.30
2018-12-01T19:11:01.582Z,76.80
2018-12-01T19:13:31.103Z,76.60
2018-12-01T19:16:00.454Z,76.40
2018-12-01T19:18:30.244Z,76.50
2018-12-01T19:21:02.024Z,76.50
2018-12-01T19:23:31.758Z,76.50
2018-12-01T19:26:00.967Z,76.60
2018-12-01T19:28:30.318Z,76.80
2018-12-01T19:31:01.787Z,76.80
2018-12-01T19:33:33.226Z,76.80
2018-12-01T19:36:04.098Z,76.80
2018-12-01T19:38:34.606Z,77.10
2018-12-01T19:41:04.010Z,77.00
2018-12-01T19:43:33.326Z,77.00
2018-12-01T19:46:02.750Z,77.00
2018-12-01T19:48:32.152Z,77.60
2018-12-01T19:51:01.437Z,77.60
2018-12-01T19:53:31.886Z,77.30
2018-12-01T19:56:01.186Z,77.60
2018-12-01T19:58:31.469Z,77.40
2018-12-01T20:01:02.994Z,77.30
2018-12-01T20:03:34.423Z,77.40
2018-12-01T20:06:03.956Z,77.60
2018-12-01T20:08:33.907Z,77.60
2018-12-01T20:11:05.542Z,77.90
2018-12-01T20:13:45.276Z,77.90
2018-12-01T20:16:29.463Z,77.80
2018-12-01T20:19:02.018Z,77.70
2018-12-01T20:21:31.477Z,77.50
2018-12-01T20:24:00.985Z,77.80
2018-12-01T20:26:31.322Z,77.30
2018-12-01T20:29:00.963Z,78.00
2018-12-01T20:31:30.478Z,78.00
2018-12-01T20:34:02.002Z,77.50
2018-12-01T20:37:09.378Z,77.90
2018-12-01T20:39:42.751Z,78.40
2018-12-01T20:42:14.065Z,78.10
2018-12-01T20:44:43.347Z,77.90
2018-12-01T20:47:13.879Z,78.10
2018-12-01T20:49:44.471Z,78.30
2018-12-01T20:52:16.786Z,78.10
2018-12-01T20:54:46.834Z,79.00
2018-12-01T20:57:25.378Z,79.10
2018-12-01T20:59:56.167Z,80.00
2018-12-01T21:02:27.970Z,79.40
2018-12-01T21:04:57.393Z,79.10
2018-12-01T21:07:28.010Z,79.30
2018-12-01T21:10:00.779Z,79.00
2018-12-01T21:12:32.406Z,79.70
2018-12-01T21:15:02.002Z,79.50
2018-12-01T21:17:33.885Z,79.70
2018-12-01T21:20:05.927Z,79.50
2018-12-01T21:22:35.370Z,79.40
2018-12-01T21:25:10.594Z,79.60
2018-12-01T21:27:45.178Z,79.90
2018-12-01T21:30:18.287Z,79.10
2018-12-01T21:32:49.144Z,79.70
2018-12-01T21:35:21.561Z,79.20
2018-12-01T21:37:51.148Z,79.00
2018-12-01T21:40:26.780Z,79.70
2018-12-01T21:42:59.200Z,79.90
2018-12-01T21:45:28.839Z,80.30
2018-12-01T21:48:00.708Z,80.20
2018-12-01T21:50:33.108Z,80.20
2018-12-01T21:53:03.539Z,80.20
2018-12-01T21:55:40.304Z,80.00
2018-12-01T21:58:11.035Z,80.10
2018-12-01T22:00:48.830Z,80.20
2018-12-01T22:03:18.960Z,80.30
2018-12-01T22:05:57.006Z,80.80
2018-12-01T22:08:26.740Z,80.20
2018-12-01T22:10:58.618Z,80.30
2018-12-01T22:13:28.125Z,80.50
2018-12-01T22:15:58.614Z,80.50
2018-12-01T22:18:30.086Z,80.50
2018-12-01T22:21:00.654Z,80.60
2018-12-01T22:23:32.425Z,80.30
2018-12-01T22:26:07.880Z,80.80
2018-12-01T22:28:37.234Z,80.90
2018-12-01T22:31:06.422Z,80.70
2018-12-01T22:33:35.666Z,80.80
2018-12-01T22:36:11.083Z,80.70
2018-12-01T22:38:40.246Z,81.90
2018-12-01T22:41:09.451Z,80.60
2018-12-01T22:43:40.332Z,81.20
2018-12-01T22:46:12.711Z,80.90
2018-12-01T22:48:41.962Z,81.40
2018-12-01T22:51:14.311Z,81.70
2018-12-01T22:53:45.493Z,81.30
2018-12-01T22:56:14.738Z,81.20
2018-12-01T22:58:46.480Z,81.20
2018-12-01T23:01:15.688Z,81.50
2018-12-01T23:03:47.101Z,82.00
2018-12-01T23:06:16.311Z,81.80
2018-12-01T23:08:45.503Z,82.30
2018-12-01T23:11:18.924Z,82.50
2018-12-01T23:13:48.862Z,82.10
2018-12-01T23:16:18.071Z,82.00
2018-12-01T23:18:47.748Z,82.30
2018-12-01T23:21:20.574Z,82.00
2018-12-01T23:23:48.745Z,82.00
2018-12-01T23:26:19.358Z,82.20
2018-12-01T23:28:48.603Z,82.30
2018-12-01T23:31:17.826Z,82.10
2018-12-01T23:33:47.035Z,82.10
2018-12-01T23:36:16.957Z,81.90
2018-12-01T23:38:47.562Z,80.80
2018-12-01T23:41:17.299Z,82.00
2018-12-01T23:43:46.482Z,81.90
2018-12-01T23:46:15.706Z,81.00
2018-12-01T23:48:45.094Z,82.10
2018-12-01T23:51:16.452Z,81.10
2018-12-01T23:53:45.896Z,80.70
2018-12-01T23:56:15.081Z,80.40
2018-12-01T23:58:44.310Z,80.60
